createdAt,value
2022-10-21T00:00:29.196Z,97373.88
2022-10-21T00:02:58.009Z,97378.97
2022-10-21T00:05:24.422Z,97382.41
2022-10-21T00:07:50.808Z,97384.19
2022-10-21T00:10:17.116Z,97392.25
2022-10-21T00:12:43.616Z,97402.97
2022-10-21T00:15:12.833Z,97400.47
2022-10-21T00:17:43.136Z,97399.25
2022-10-21T00:20:11.283Z,97397.00
2022-10-21T00:22:37.829Z,97396.19
2022-10-21T00:25:05.005Z,97388.22
2022-10-21T00:27:31.350Z,97396.31
2022-10-21T00:29:57.707Z,97401.16
2022-10-21T00:32:26.504Z,97399.88
2022-10-21T00:34:52.795Z,97392.97
2022-10-21T00:37:21.486Z,97388.25
2022-10-21T00:39:47.793Z,97381.69
2022-10-21T00:42:15.449Z,97378.16
2022-10-21T00:44:44.257Z,97376.00
2022-10-21T00:47:16.905Z,97379.34
2022-10-21T00:49:46.305Z,97383.34
2022-10-21T00:52:14.736Z,97385.28
2022-10-21T00:54:41.870Z,97379.34
2022-10-21T00:57:08.821Z,97376.59
2022-10-21T00:59:38.755Z,97378.34
2022-10-21T01:02:05.470Z,97378.81
2022-10-21T01:04:31.985Z,97369.59
2022-10-21T01:06:59.764Z,97367.56
2022-10-21T01:09:26.284Z,97354.75
2022-10-21T01:11:52.804Z,97353.13
2022-10-21T01:14:19.285Z,97351.44
2022-10-21T01:16:55.086Z,97347.16
2022-10-21T01:19:33.402Z,97332.78
2022-10-21T01:22:19.965Z,97319.72
2022-10-21T01:24:52.250Z,97302.66
2022-10-21T01:27:26.067Z,97291.13
2022-10-21T01:30:11.266Z,97271.41
2022-10-21T01:32:43.836Z,97265.94
2022-10-21T01:35:14.010Z,97260.81
2022-10-21T01:37:49.312Z,97266.78
2022-10-21T01:40:22.052Z,97292.19
2022-10-21T01:42:59.682Z,97290.63
2022-10-21T01:45:25.980Z,97288.63
2022-10-21T01:48:03.977Z,97291.72
2022-10-21T01:50:32.280Z,97288.03
2022-10-21T01:53:01.756Z,97274.25
2022-10-21T01:55:30.762Z,97262.50
2022-10-21T01:58:01.967Z,97263.81
2022-10-21T02:00:29.327Z,97275.69
2022-10-21T02:02:56.073Z,97283.50
2022-10-21T02:05:25.293Z,97288.50
2022-10-21T02:07:54.627Z,97291.34
2022-10-21T02:10:21.761Z,97299.19
2022-10-21T02:12:49.541Z,97302.16
2022-10-21T02:15:19.551Z,97291.13
2022-10-21T02:17:49.392Z,97295.28
2022-10-21T02:20:16.430Z,97295.63
2022-10-21T02:22:44.073Z,97283.66
2022-10-21T02:25:18.777Z,97280.53
2022-10-21T02:27:45.418Z,97270.44
2022-10-21T02:30:12.101Z,97264.28
2022-10-21T02:32:41.675Z,97259.50
2022-10-21T02:35:14.153Z,97253.53
2022-10-21T02:38:09.786Z,97254.53
2022-10-21T02:40:36.072Z,97246.00
2022-10-21T02:43:09.044Z,97240.75
2022-10-21T02:45:35.747Z,97232.22
2022-10-21T02:48:02.065Z,97237.66
2022-10-21T02:50:28.419Z,97235.53
2022-10-21T02:52:54.878Z,97247.53
2022-10-21T02:55:21.177Z,97254.19
2022-10-21T02:57:47.560Z,97257.38
2022-10-21T03:00:13.988Z,97249.56
2022-10-21T03:02:42.022Z,97241.03
2022-10-21T03:05:09.343Z,97233.66
2022-10-21T03:07:36.106Z,97234.47
2022-10-21T03:10:02.614Z,97229.50
2022-10-21T03:12:28.918Z,97236.03
2022-10-21T03:14:55.310Z,97239.72
2022-10-21T03:17:24.422Z,97241.97
2022-10-21T03:19:51.728Z,97238.06
2022-10-21T03:22:18.040Z,97235.81
2022-10-21T03:24:46.836Z,97231.78
2022-10-21T03:27:13.159Z,97219.91
2022-10-21T03:29:39.465Z,97227.59
2022-10-21T03:32:05.840Z,97222.41
2022-10-21T03:34:32.202Z,97218.59
2022-10-21T03:36:58.564Z,97217.28
2022-10-21T03:39:24.914Z,97214.53
2022-10-21T03:41:51.258Z,97212.78
2022-10-21T03:44:17.600Z,97217.97
2022-10-21T03:46:43.914Z,97209.56
2022-10-21T03:49:18.343Z,97208.97
2022-10-21T03:51:47.653Z,97214.28
2022-10-21T03:54:13.945Z,97209.56
2022-10-21T03:56:40.291Z,97204.81
2022-10-21T03:59:06.628Z,97197.03
2022-10-21T04:01:32.966Z,97195.44
2022-10-21T04:03:59.381Z,97197.59
2022-10-21T04:06:25.724Z,97187.56
2022-10-21T04:08:52.110Z,97188.97
2022-10-21T04:11:18.473Z,97185.91
2022-10-21T04:13:44.910Z,97191.34
2022-10-21T04:16:14.514Z,97184.72
2022-10-21T04:18:40.866Z,97188.25
2022-10-21T04:21:08.687Z,97192.75
2022-10-21T04:23:37.976Z,97191.81
2022-10-21T04:26:05.051Z,97196.06
2022-10-21T04:28:31.773Z,97184.91
2022-10-21T04:30:58.159Z,97175.47
2022-10-21T04:33:24.512Z,97177.72
2022-10-21T04:35:50.850Z,97174.47
2022-10-21T04:38:17.143Z,97174.53
2022-10-21T04:40:43.476Z,97173.56
2022-10-21T04:43:09.770Z,97166.28
2022-10-21T04:45:38.592Z,97164.66
2022-10-21T04:48:05.085Z,97156.47
2022-10-21T04:50:32.518Z,97146.06
2022-10-21T04:52:58.813Z,97141.91
2022-10-21T04:55:25.254Z,97136.59
2022-10-21T04:57:51.579Z,97137.16
2022-10-21T05:00:17.919Z,97133.25
2022-10-21T05:02:44.292Z,97120.06
2022-10-21T05:05:10.627Z,97116.91
2022-10-21T05:07:36.959Z,97107.19
2022-10-21T05:10:03.389Z,97104.78
2022-10-21T05:12:29.707Z,97112.84
2022-10-21T05:14:56.116Z,97106.31
2022-10-21T05:17:22.393Z,97103.34
2022-10-21T05:19:48.749Z,97097.22
2022-10-21T05:22:15.032Z,97100.19
2022-10-21T05:24:41.322Z,97098.50
2022-10-21T05:27:07.632Z,97094.72
2022-10-21T05:29:33.946Z,97099.09
2022-10-21T05:32:00.250Z,97099.00
2022-10-21T05:34:26.535Z,97092.47
2022-10-21T05:36:52.849Z,97089.50
2022-10-21T05:39:19.193Z,97081.81
2022-10-21T05:41:47.856Z,97078.03
2022-10-21T05:44:14.708Z,97079.53
2022-10-21T05:46:41.019Z,97086.53
2022-10-21T05:49:07.552Z,97083.91
2022-10-21T05:51:33.915Z,97075.84
2022-10-21T05:54:05.699Z,97081.06
2022-10-21T05:56:32.597Z,97073.03
2022-10-21T05:58:58.908Z,97072.41
2022-10-21T06:01:25.295Z,97072.31
2022-10-21T06:03:51.910Z,97072.31
2022-10-21T06:06:18.350Z,97069.34
2022-10-21T06:08:45.007Z,97072.31
2022-10-21T06:11:12.752Z,97077.50
2022-10-21T06:13:39.393Z,97091.19
2022-10-21T06:18:40.594Z,97081.34
2022-10-21T06:21:07.213Z,97080.84
2022-10-21T06:23:36.718Z,97080.13
2022-10-21T06:26:04.294Z,97096.28
2022-10-21T06:28:32.263Z,97101.50
2022-10-21T06:30:58.640Z,97098.16
2022-10-21T06:33:27.025Z,97101.38
2022-10-21T06:35:53.932Z,97092.22
2022-10-21T06:38:20.332Z,97094.25
2022-10-21T06:40:48.673Z,97099.81
2022-10-21T06:43:15.637Z,97098.34
2022-10-21T06:45:42.008Z,97088.16
2022-10-21T06:48:08.507Z,97101.09
2022-10-21T06:50:36.560Z,97104.31
2022-10-21T06:53:03.134Z,97102.66
2022-10-21T06:55:29.490Z,97098.84
2022-10-21T06:57:55.896Z,97106.06
2022-10-21T07:00:22.372Z,97110.56
2022-10-21T07:02:48.769Z,97107.59
2022-10-21T07:05:15.155Z,97111.59
2022-10-21T07:07:41.882Z,97107.25
2022-10-21T07:10:08.497Z,97113.88
2022-10-21T07:12:35.173Z,97121.94
2022-10-21T07:15:01.524Z,97109.47
2022-10-21T07:17:33.510Z,97099.66
2022-10-21T07:20:00.544Z,97093.19
2022-10-21T07:22:26.951Z,97090.53
2022-10-21T07:24:53.295Z,97091.88
2022-10-21T07:27:19.710Z,97088.56
2022-10-21T07:29:46.096Z,97081.97
2022-10-21T07:32:12.433Z,97081.47
2022-10-21T07:34:38.786Z,97076.31
2022-10-21T07:37:05.219Z,97071.47
2022-10-21T07:39:31.621Z,97062.63
2022-10-21T07:41:58.209Z,97061.09
2022-10-21T07:44:25.644Z,97062.72
2022-10-21T07:46:52.953Z,97057.19
2022-10-21T07:49:19.949Z,97052.09
2022-10-21T07:51:46.469Z,97056.56
2022-10-21T07:54:13.582Z,97058.13
2022-10-21T07:56:43.232Z,97049.22
2022-10-21T07:59:13.032Z,97047.22
2022-10-21T08:01:44.182Z,97045.00
2022-10-21T08:04:12.051Z,97059.06
2022-10-21T08:06:39.273Z,97054.78
2022-10-21T08:09:05.793Z,97051.75
2022-10-21T08:11:33.066Z,97046.16
2022-10-21T08:13:59.476Z,97041.94
2022-10-21T08:16:28.747Z,97035.22
2022-10-21T08:18:55.526Z,97037.13
2022-10-21T08:21:21.862Z,97032.72
2022-10-21T08:23:48.212Z,97023.34
2022-10-21T08:26:15.659Z,97016.03
2022-10-21T08:28:42.681Z,97007.34
2022-10-21T08:31:10.981Z,97000.34
2022-10-21T08:33:37.979Z,96991.91
2022-10-21T08:36:06.935Z,96987.78
2022-10-21T08:38:33.377Z,96989.16
2022-10-21T08:41:00.061Z,97002.13
2022-10-21T08:43:31.559Z,96994.41
2022-10-21T08:45:57.915Z,96996.47
2022-10-21T08:48:33.532Z,96994.97
2022-10-21T08:51:00.475Z,96985.28
2022-10-21T08:53:33.219Z,96979.38
2022-10-21T08:56:06.342Z,96967.09
2022-10-21T08:58:32.873Z,96966.81
2022-10-21T09:01:03.577Z,96961.88
2022-10-21T09:03:29.929Z,96961.84
2022-10-21T09:06:15.055Z,96970.69
2022-10-21T09:09:00.465Z,96969.31
2022-10-21T09:11:41.895Z,96978.13
2022-10-21T09:14:17.927Z,96977.56
2022-10-21T09:16:44.661Z,96983.78
2022-10-21T09:19:14.035Z,96978.00
2022-10-21T09:21:43.501Z,96969.72
2022-10-21T09:24:14.107Z,96975.63
2022-10-21T09:26:41.934Z,96973.72
2022-10-21T09:29:28.567Z,96971.63
2022-10-21T09:32:13.648Z,96978.28
2022-10-21T09:34:58.915Z,96985.56
2022-10-21T09:37:33.244Z,96982.53
2022-10-21T09:40:13.514Z,96985.03
2022-10-21T09:42:47.597Z,96979.22
2022-10-21T09:45:34.667Z,96981.44
2022-10-21T09:48:06.435Z,96978.25
2022-10-21T09:50:34.563Z,96984.63
2022-10-21T09:53:24.009Z,96983.50
2022-10-21T09:55:58.696Z,96976.75
2022-10-21T09:58:26.808Z,96982.25
2022-10-21T10:00:53.328Z,96987.75
2022-10-21T10:03:49.361Z,96983.06
2022-10-21T10:06:29.746Z,96991.78
2022-10-21T10:09:05.843Z,96988.63
2022-10-21T10:11:32.166Z,96993.84
2022-10-21T10:14:16.537Z,96988.72
2022-10-21T10:16:42.867Z,96994.50
2022-10-21T10:19:22.387Z,96983.88
2022-10-21T10:22:10.250Z,96994.88
2022-10-21T10:24:37.455Z,96990.53
2022-10-21T10:27:05.603Z,97000.19
2022-10-21T10:29:34.614Z,97003.91
2022-10-21T10:32:01.620Z,97003.50
2022-10-21T10:34:31.044Z,97003.09
2022-10-21T10:37:06.509Z,97008.16
2022-10-21T10:39:34.851Z,97006.06
2022-10-21T10:42:02.151Z,97003.00
2022-10-21T10:44:32.048Z,97005.38
2022-10-21T10:47:00.292Z,97019.06
2022-10-21T10:49:27.588Z,97019.38
2022-10-21T10:52:04.096Z,97021.56
2022-10-21T10:54:30.587Z,97039.81
2022-10-21T10:56:59.413Z,97038.31
2022-10-21T10:59:34.714Z,97031.81
2022-10-21T11:02:01.056Z,97048.38
2022-10-21T11:04:32.411Z,97047.88
2022-10-21T11:07:03.003Z,97027.13
2022-10-21T11:09:31.278Z,97041.75
2022-10-21T11:11:57.916Z,97045.94
2022-10-21T11:14:26.494Z,97014.38
2022-10-21T11:17:11.644Z,97029.84
2022-10-21T11:19:37.970Z,97048.28
2022-10-21T11:22:06.160Z,97027.28
2022-10-21T11:24:32.654Z,97035.84
2022-10-21T11:27:07.363Z,97051.53
2022-10-21T11:29:36.790Z,97041.03
2022-10-21T11:32:11.925Z,97061.84
2022-10-21T11:34:51.543Z,97085.09
2022-10-21T11:37:36.875Z,97125.00
2022-10-21T11:40:22.386Z,97119.59
2022-10-21T11:42:50.870Z,97100.38
2022-10-21T11:45:37.743Z,97139.34
2022-10-21T11:48:19.148Z,97116.38
2022-10-21T11:50:48.549Z,97128.81
2022-10-21T11:53:30.905Z,97125.47
2022-10-21T11:56:07.643Z,97122.69
2022-10-21T11:58:37.108Z,97125.94
2022-10-21T12:01:06.628Z,97118.75
2022-10-21T12:03:36.921Z,97119.19
2022-10-21T12:06:12.754Z,97128.03
2022-10-21T12:08:55.905Z,97119.34
2022-10-21T12:11:26.359Z,97091.50
2022-10-21T12:13:57.763Z,97081.09
2022-10-21T12:16:29.608Z,97079.97
2022-10-21T12:18:57.988Z,97098.31
2022-10-21T12:21:26.187Z,97120.72
2022-10-21T12:24:12.836Z,97131.63
2022-10-21T12:26:47.355Z,97135.16
2022-10-21T12:29:13.732Z,97125.63
2022-10-21T12:31:49.175Z,97129.16
2022-10-21T12:34:15.793Z,97123.16
2022-10-21T12:36:46.909Z,97119.69
2022-10-21T12:39:17.571Z,97127.31
2022-10-21T12:41:45.594Z,97144.13
2022-10-21T12:44:21.404Z,97140.22
2022-10-21T12:46:55.800Z,97139.44
2022-10-21T12:49:23.770Z,97128.09
2022-10-21T12:51:52.956Z,97143.66
2022-10-21T12:54:25.337Z,97146.56
2022-10-21T12:57:05.001Z,97149.47
2022-10-21T12:59:33.626Z,97142.63
2022-10-21T13:02:05.853Z,97154.16
2022-10-21T13:04:32.196Z,97155.28
2022-10-21T13:07:00.038Z,97143.50
2022-10-21T13:09:34.047Z,97136.53
2022-10-21T13:12:12.915Z,97146.97
2022-10-21T13:14:40.696Z,97147.81
2022-10-21T13:17:28.729Z,97152.78
2022-10-21T13:19:56.541Z,97152.09
2022-10-21T13:22:37.663Z,97148.03
2022-10-21T13:25:19.349Z,97149.09
2022-10-21T13:27:48.318Z,97148.19
2022-10-21T13:30:29.002Z,97147.69
2022-10-21T13:33:21.932Z,97143.59
2022-10-21T13:35:53.595Z,97151.22
2022-10-21T13:38:33.567Z,97159.94
2022-10-21T13:41:04.856Z,97149.41
2022-10-21T13:43:39.194Z,97152.44
2022-10-21T13:46:07.683Z,97154.13
2022-10-21T13:48:38.256Z,97166.28
2022-10-21T13:51:16.129Z,97169.53
2022-10-21T13:53:45.659Z,97176.00
2022-10-21T13:56:20.070Z,97181.56
2022-10-21T13:58:46.577Z,97177.16
2022-10-21T14:01:20.055Z,97183.63
2022-10-21T14:03:46.799Z,97185.41
2022-10-21T14:06:19.650Z,97184.78
2022-10-21T14:08:47.087Z,97175.38
2022-10-21T14:11:36.398Z,97179.50
2022-10-21T14:14:07.203Z,97173.72
2022-10-21T14:16:37.956Z,97179.72
2022-10-21T14:19:21.509Z,97181.69
2022-10-21T14:21:49.434Z,97180.66
2022-10-21T14:24:37.505Z,97184.59
2022-10-21T14:27:04.658Z,97177.34
2022-10-21T14:29:33.207Z,97171.22
2022-10-21T14:32:00.416Z,97172.38
2022-10-21T14:34:28.573Z,97168.56
2022-10-21T14:37:09.436Z,97180.44
2022-10-21T14:39:38.249Z,97190.19
2022-10-21T14:42:14.255Z,97186.34
2022-10-21T14:44:42.095Z,97178.63
2022-10-21T14:47:16.809Z,97175.78
2022-10-21T14:49:45.994Z,97174.09
2022-10-21T14:52:23.165Z,97157.50
2022-10-21T14:54:54.531Z,97160.13
2022-10-21T14:57:42.561Z,97170.06
2022-10-21T15:00:20.555Z,97165.41
2022-10-21T15:02:47.175Z,97169.06
2022-10-21T15:05:32.612Z,97163.44
2022-10-21T15:08:14.520Z,97154.06
2022-10-21T15:10:41.264Z,97154.75
2022-10-21T15:13:20.121Z,97156.69
2022-10-21T15:15:53.218Z,97166.00
2022-10-21T15:18:21.858Z,97164.03
2022-10-21T15:20:50.338Z,97159.25
2022-10-21T15:23:22.110Z,97153.22
2022-10-21T15:25:51.408Z,97152.41
2022-10-21T15:28:18.888Z,97157.34
2022-10-21T15:30:45.384Z,97150.25
2022-10-21T15:33:12.516Z,97154.47
2022-10-21T15:35:38.856Z,97155.44
2022-10-21T15:38:05.475Z,97147.81
2022-10-21T15:40:32.888Z,97142.69
2022-10-21T15:42:59.323Z,97151.56
2022-10-21T15:45:25.693Z,97144.97
2022-10-21T15:47:53.005Z,97156.09
2022-10-21T15:50:23.756Z,97150.44
2022-10-21T15:52:50.160Z,97151.28
2022-10-21T15:55:16.625Z,97149.38
2022-10-21T15:57:43.036Z,97158.47
2022-10-21T16:00:12.613Z,97145.94
2022-10-21T16:02:41.729Z,97148.97
2022-10-21T16:05:09.191Z,97142.13
2022-10-21T16:07:36.984Z,97150.19
2022-10-21T16:10:22.764Z,97149.06
2022-10-21T16:12:49.768Z,97152.66
2022-10-21T16:15:16.676Z,97154.22
2022-10-21T16:17:44.101Z,97156.31
2022-10-21T16:22:46.167Z,97152.75
2022-10-21T16:25:12.690Z,97159.13
2022-10-21T16:27:51.308Z,97157.38
2022-10-21T16:30:26.756Z,97159.19
2022-10-21T16:32:53.150Z,97149.28
2022-10-21T16:35:20.159Z,97145.38
2022-10-21T16:37:47.045Z,97156.47
2022-10-21T16:40:24.490Z,97153.72
2022-10-21T16:42:51.317Z,97146.00
2022-10-21T16:45:18.784Z,97131.38
2022-10-21T16:47:48.488Z,97150.47
2022-10-21T16:50:39.572Z,97139.00
2022-10-21T16:53:09.343Z,97127.69
2022-10-21T16:55:35.689Z,97149.53
2022-10-21T16:58:02.076Z,97139.25
2022-10-21T17:00:28.517Z,97146.06
2022-10-21T17:02:54.976Z,97148.41
2022-10-21T17:05:21.756Z,97147.75
2022-10-21T17:07:48.261Z,97151.31
2022-10-21T17:10:14.756Z,97154.19
2022-10-21T17:12:41.324Z,97166.22
2022-10-21T17:15:08.479Z,97166.25
2022-10-21T17:17:36.611Z,97169.00
2022-10-21T17:20:03.540Z,97172.31
2022-10-21T17:22:30.016Z,97187.13
2022-10-21T17:24:56.363Z,97195.00
2022-10-21T17:27:25.196Z,97196.94
2022-10-21T17:29:51.615Z,97195.03
2022-10-21T17:32:18.178Z,97202.50
2022-10-21T17:34:44.884Z,97185.88
2022-10-21T17:37:12.150Z,97181.63
2022-10-21T17:39:38.618Z,97187.03
2022-10-21T17:42:05.026Z,97181.78
2022-10-21T17:44:31.422Z,97189.09
2022-10-21T17:46:57.802Z,97183.72
2022-10-21T17:49:25.139Z,97178.47
2022-10-21T17:51:51.713Z,97172.78
2022-10-21T17:54:24.563Z,97173.22
2022-10-21T17:56:55.051Z,97176.00
2022-10-21T17:59:24.268Z,97179.72
2022-10-21T18:01:50.681Z,97168.41
2022-10-21T18:04:17.069Z,97167.44
2022-10-21T18:06:43.661Z,97172.53
2022-10-21T18:09:10.270Z,97166.50
2022-10-21T18:11:37.339Z,97170.75
2022-10-21T18:14:04.018Z,97163.88
2022-10-21T18:16:30.453Z,97163.59
2022-10-21T18:19:00.114Z,97163.28
2022-10-21T18:21:29.394Z,97159.16
2022-10-21T18:23:55.979Z,97151.97
2022-10-21T18:26:27.283Z,97145.91
2022-10-21T18:28:57.975Z,97152.81
2022-10-21T18:31:28.225Z,97153.63
2022-10-21T18:33:55.023Z,97153.34
2022-10-21T18:36:24.175Z,97158.88
2022-10-21T18:38:50.713Z,97154.88
2022-10-21T18:41:20.518Z,97154.75
2022-10-21T18:43:54.407Z,97151.84
2022-10-21T18:46:21.563Z,97150.47
2022-10-21T18:48:48.461Z,97144.66
2022-10-21T18:51:16.164Z,97148.25
2022-10-21T18:53:42.619Z,97140.81
2022-10-21T18:56:10.625Z,97140.66
2022-10-21T18:58:37.584Z,97132.66
2022-10-21T19:01:04.424Z,97126.88
2022-10-21T19:03:31.374Z,97131.00
2022-10-21T19:05:57.759Z,97126.25
2022-10-21T19:08:24.181Z,97131.25
2022-10-21T19:10:50.564Z,97123.28
2022-10-21T19:13:17.044Z,97124.38
2022-10-21T19:15:43.487Z,97126.03
2022-10-21T19:18:13.109Z,97115.13
2022-10-21T19:20:40.308Z,97107.25
2022-10-21T19:23:07.559Z,97095.00
2022-10-21T19:25:34.073Z,97100.22
2022-10-21T19:28:02.808Z,97100.66
2022-10-21T19:30:31.018Z,97093.75
2022-10-21T19:33:00.411Z,97085.63
2022-10-21T19:35:29.264Z,97100.50
2022-10-21T19:38:00.502Z,97114.44
2022-10-21T19:40:29.605Z,97127.00
2022-10-21T19:42:55.948Z,97129.22
2022-10-21T19:45:22.305Z,97129.09
2022-10-21T19:47:48.660Z,97134.44
2022-10-21T19:50:15.153Z,97129.63
2022-10-21T19:52:41.837Z,97122.72
2022-10-21T19:55:08.871Z,97120.94
2022-10-21T19:57:35.255Z,97128.81
2022-10-21T20:00:01.823Z,97123.56
2022-10-21T20:02:28.212Z,97126.94
2022-10-21T20:04:54.554Z,97131.13
2022-10-21T20:07:20.915Z,97133.16
2022-10-21T20:09:47.355Z,97134.13
2022-10-21T20:12:13.675Z,97131.84
2022-10-21T20:14:41.004Z,97135.28
2022-10-21T20:17:07.455Z,97132.66
2022-10-21T20:19:33.930Z,97129.75
2022-10-21T20:22:00.470Z,97125.78
2022-10-21T20:24:29.389Z,97118.44
2022-10-21T20:26:59.676Z,97137.63
2022-10-21T20:29:28.555Z,97150.31
2022-10-21T20:31:54.942Z,97147.28
2022-10-21T20:34:21.376Z,97129.91
2022-10-21T20:36:47.787Z,97123.16
2022-10-21T20:39:14.189Z,97117.75
2022-10-21T20:41:40.782Z,97115.25
2022-10-21T20:44:08.297Z,97119.09
2022-10-21T20:46:37.421Z,97121.00
2022-10-21T20:49:05.129Z,97117.97
2022-10-21T20:51:31.552Z,97123.25
2022-10-21T20:54:07.699Z,97133.47
2022-10-21T20:56:36.190Z,97132.34
2022-10-21T20:59:03.268Z,97135.28
2022-10-21T21:01:33.652Z,97138.03
2022-10-21T21:04:01.516Z,97134.00
2022-10-21T21:06:28.114Z,97124.19
2022-10-21T21:09:28.918Z,97124.47
2022-10-21T21:11:43.226Z,97122.66
2022-10-21T21:14:09.646Z,97120.72
2022-10-21T21:16:36.211Z,97110.94
2022-10-21T21:19:04.211Z,97101.72
2022-10-21T21:21:32.138Z,97092.91
2022-10-21T21:23:58.794Z,97081.88
2022-10-21T21:26:26.506Z,97072.06
2022-10-21T21:28:52.919Z,97080.06
2022-10-21T21:31:20.420Z,97068.31
2022-10-21T21:33:47.081Z,97069.16
2022-10-21T21:36:14.229Z,97056.88
2022-10-21T21:38:40.748Z,97051.50
2022-10-21T21:41:10.666Z,97049.28
2022-10-21T21:43:41.495Z,97051.50
2022-10-21T21:46:08.146Z,97049.84
2022-10-21T21:48:34.694Z,97043.22
2022-10-21T21:51:07.544Z,97043.22
2022-10-21T21:53:33.925Z,97038.78
2022-10-21T21:56:03.094Z,97038.53
2022-10-21T21:58:29.897Z,97033.00
2022-10-21T22:00:56.251Z,97021.16
2022-10-21T22:03:22.631Z,97014.00
2022-10-21T22:05:49.113Z,97033.28
2022-10-21T22:08:15.476Z,97036.59
2022-10-21T22:10:42.607Z,97039.91
2022-10-21T22:13:09.263Z,97037.13
2022-10-21T22:15:47.697Z,97033.00
2022-10-21T22:18:14.982Z,97029.16
2022-10-21T22:20:41.354Z,97030.25
2022-10-21T22:23:07.695Z,97021.16
2022-10-21T22:28:04.014Z,97010.94
2022-10-21T22:30:30.333Z,96997.03
2022-10-21T22:32:56.730Z,97004.88
2022-10-21T22:35:23.120Z,97028.47
2022-10-21T22:37:49.464Z,97047.22
2022-10-21T22:40:18.150Z,97041.03
2022-10-21T22:45:15.797Z,97034.66
2022-10-21T22:47:42.485Z,97037.56
2022-10-21T22:50:09.143Z,97039.22
2022-10-21T22:52:35.593Z,97046.38
2022-10-21T22:55:01.941Z,97061.56
2022-10-21T22:57:28.248Z,97067.50
2022-10-21T22:59:54.619Z,97087.09
2022-10-21T23:02:21.194Z,97098.41
2022-10-21T23:04:47.598Z,97083.91
2022-10-21T23:07:13.976Z,97075.50
2022-10-21T23:09:40.361Z,97071.38
2022-10-21T23:12:06.725Z,97064.47
2022-10-21T23:14:33.213Z,97060.63
2022-10-21T23:16:59.567Z,97069.59
2022-10-21T23:19:25.905Z,97065.97
2022-10-21T23:21:52.318Z,97055.63
2022-10-21T23:24:18.754Z,97054.53
2022-10-21T23:26:45.159Z,97046.38
2022-10-21T23:29:11.644Z,97045.00
2022-10-21T23:31:38.081Z,97043.22
2022-10-21T23:34:05.918Z,97047.38
2022-10-21T23:36:33.188Z,97045.16
2022-10-21T23:38:59.523Z,97032.06
2022-10-21T23:41:25.957Z,97028.88
2022-10-21T23:43:54.771Z,97028.88
2022-10-21T23:46:21.396Z,97031.38
2022-10-21T23:48:47.882Z,97039.09
2022-10-21T23:51:14.223Z,97032.19
2022-10-21T23:53:40.756Z,97026.94
2022-10-21T23:56:07.512Z,97019.38
2022-10-21T23:58:34.002Z,97016.75
